Time;durP1;ratioP1;P1;durP2;ratioP2;P2;SDS_P1;SDS_P2;PMS_P1;PMS_P2;Temp;Humidity;BMP_temperature;BMP_pressure;BME280_temperature;BME280_humidity;BME280_pressure;Samples;Min_cycle;Max_cycle;Signal;HPM_P1;HPM_P2
2021/06/05 00:01:34;;;;;;;7.70;3.55;;;;;;;;;;5105194;28;20028;-70
2021/06/05 00:04:00;;;;;;;6.38;3.22;;;;;;;;;;5094842;28;20028;-70
2021/06/05 00:06:26;;;;;;;10.13;3.65;;;;;;;;;;5089862;28;20077;-70
2021/06/05 00:08:53;;;;;;;6.68;3.50;;;;;;;;;;5090267;28;20032;-70
2021/06/05 00:11:22;;;;;;;10.02;3.95;;;;;;;;;;5090047;28;20394;-71
2021/06/05 00:13:49;;;;;;;5.03;3.35;;;;;;;;;;5089508;28;20076;-71
2021/06/05 00:16:17;;;;;;;6.57;3.53;;;;;;;;;;5089110;28;20035;-70
2021/06/05 00:18:44;;;;;;;10.45;3.45;;;;;;;;;;5103406;28;20035;-70
2021/06/05 00:21:11;;;;;;;8.52;3.97;;;;;;;;;;5108268;28;20066;-71
2021/06/05 00:23:37;;;;;;;8.07;3.38;;;;;;;;;;5102699;28;20217;-71
2021/06/05 00:26:04;;;;;;;5.35;3.60;;;;;;;;;;5089340;28;20535;-71
2021/06/05 00:28:30;;;;;;;10.05;3.28;;;;;;;;;;5095132;28;20564;-70
2021/06/05 00:30:56;;;;;;;9.75;3.20;;;;;;;;;;5091648;28;20039;-71
2021/06/05 00:33:23;;;;;;;8.52;3.63;;;;;;;;;;5093812;28;20032;-71
2021/06/05 00:35:49;;;;;;;6.85;2.85;;;;;;;;;;5089456;28;20063;-71
2021/06/05 00:38:15;;;;;;;9.27;3.42;;;;;;;;;;5094404;28;20110;-71
2021/06/05 00:40:43;;;;;;;9.35;3.25;;;;;;;;;;5098807;28;20123;-71
2021/06/05 00:43:09;;;;;;;5.00;3.22;;;;;;;;;;5088275;28;20032;-71
2021/06/05 00:45:37;;;;;;;6.90;2.90;;;;;;;;;;5089397;28;20095;-71
2021/06/05 00:48:04;;;;;;;7.90;3.65;;;;;;;;;;5095420;28;20023;-70
2021/06/05 00:50:30;;;;;;;9.70;3.67;;;;;;;;;;5094963;28;20405;-70
2021/06/05 00:52:57;;;;;;;7.97;3.30;;;;;;;;;;5090759;28;20479;-70
2021/06/05 00:55:24;;;;;;;9.18;4.07;;;;;;;;;;5092777;28;20482;-70
2021/06/05 00:57:50;;;;;;;8.45;4.38;;;;;;;;;;5099742;28;20028;-70
2021/06/05 01:00:23;;;;;;;9.40;3.65;;;;;;;;;;5092008;28;20039;-71
2021/06/05 01:02:49;;;;;;;11.88;3.88;;;;;;;;;;5088130;28;20028;-70
2021/06/05 01:05:16;;;;;;;6.95;3.17;;;;;;;;;;5088550;28;20099;-71
2021/06/05 01:07:43;;;;;;;7.10;3.30;;;;;;;;;;5099904;28;20032;-71
2021/06/05 01:10:13;;;;;;;6.50;3.65;;;;;;;;;;5109149;28;20061;-70
2021/06/05 01:12:48;;;;;;;6.10;3.47;;;;;;;;;;5088713;28;20115;-70
2021/06/05 01:15:18;;;;;;;6.88;3.03;;;;;;;;;;5098552;28;20048;-72
2021/06/05 01:17:48;;;;;;;11.15;4.28;;;;;;;;;;5101007;28;20143;-71
2021/06/05 01:20:33;;;;;;;5.97;3.05;;;;;;;;;;5093905;28;20063;-71
2021/06/05 01:23:01;;;;;;;;;;;;;;;;;;5074423;28;20081;-69
2021/06/05 01:25:46;;;;;;;6.53;3.08;;;;;;;;;;5081750;28;19999;-71
2021/06/05 01:28:18;;;;;;;7.50;3.23;;;;;;;;;;5103634;28;20394;-70
2021/06/05 01:30:49;;;;;;;5.30;3.28;;;;;;;;;;5093352;28;20262;-70
2021/06/05 01:33:18;;;;;;;4.40;3.22;;;;;;;;;;5100671;28;20028;-70
2021/06/05 01:35:44;;;;;;;4.78;3.20;;;;;;;;;;5073984;28;20040;-70
2021/06/05 01:38:12;;;;;;;10.15;3.28;;;;;;;;;;5102810;28;20028;-71
2021/06/05 01:40:39;;;;;;;7.60;3.40;;;;;;;;;;5106207;28;20031;-71
2021/06/05 01:43:06;;;;;;;7.63;3.45;;;;;;;;;;5092001;28;20031;-71
2021/06/05 01:45:34;;;;;;;10.30;3.70;;;;;;;;;;5098747;28;20035;-70
2021/06/05 01:48:01;;;;;;;8.02;3.45;;;;;;;;;;5092919;28;20024;-71
2021/06/05 01:50:29;;;;;;;7.88;3.53;;;;;;;;;;5101969;28;20085;-71
2021/06/05 01:52:57;;;;;;;11.10;3.35;;;;;;;;;;5091979;28;20081;-71
2021/06/05 01:55:32;;;;;;;5.82;3.28;;;;;;;;;;5093371;28;20031;-71
2021/06/05 01:57:58;;;;;;;;;;;;;;;;;;5096088;28;20120;-72
2021/06/05 02:00:28;;;;;;;6.35;3.00;;;;;;;;;;5102583;28;20353;-70
2021/06/05 02:02:56;;;;;;;7.38;4.15;;;;;;;;;;5073933;28;20031;-71
2021/06/05 02:05:23;;;;;;;7.70;3.45;;;;;;;;;;5096170;28;20032;-71
2021/06/05 02:07:52;;;;;;;4.88;3.30;;;;;;;;;;5091491;28;20402;-69
2021/06/05 02:10:19;;;;;;;8.00;3.40;;;;;;;;;;5104967;28;20031;-71
2021/06/05 02:12:45;;;;;;;6.70;3.63;;;;;;;;;;5093837;28;20604;-70
2021/06/05 02:15:23;;;;;;;7.78;3.33;;;;;;;;;;5090216;28;20542;-72
2021/06/05 02:17:49;;;;;;;8.00;3.13;;;;;;;;;;5109940;28;20035;-71
2021/06/05 02:20:18;;;;;;;5.95;3.22;;;;;;;;;;5099709;28;20031;-70
2021/06/05 02:22:45;;;;;;;7.10;3.20;;;;;;;;;;5105864;28;20045;-70
2021/06/05 02:25:12;;;;;;;10.30;4.50;;;;;;;;;;5108257;28;20028;-70
2021/06/05 02:27:40;;;;;;;5.13;3.10;;;;;;;;;;5094876;28;20026;-71
2021/06/05 02:30:08;;;;;;;6.25;3.28;;;;;;;;;;5104995;28;20053;-71
2021/06/05 02:32:34;;;;;;;10.00;3.20;;;;;;;;;;5096797;28;20028;-70
2021/06/05 02:35:01;;;;;;;7.35;3.67;;;;;;;;;;5091626;28;20182;-71
2021/06/05 02:37:29;;;;;;;7.20;3.08;;;;;;;;;;5091145;28;20546;-70
2021/06/05 02:40:00;;;;;;;5.03;3.88;;;;;;;;;;5091589;28;20064;-70
2021/06/05 02:42:27;;;;;;;5.45;3.25;;;;;;;;;;5103361;27;20024;-71
2021/06/05 02:44:57;;;;;;;8.23;3.58;;;;;;;;;;5097004;28;20792;-71
2021/06/05 02:47:24;;;;;;;8.63;3.88;;;;;;;;;;5100634;28;20119;-70
2021/06/05 02:49:51;;;;;;;6.10;3.30;;;;;;;;;;5094631;28;20062;-70
2021/06/05 02:52:31;;;;;;;5.30;3.10;;;;;;;;;;5100908;28;20056;-71
2021/06/05 02:55:03;;;;;;;6.53;3.65;;;;;;;;;;5090598;28;20028;-70
2021/06/05 02:57:30;;;;;;;5.88;4.45;;;;;;;;;;5093627;28;20043;-70
2021/06/05 02:59:56;;;;;;;6.65;4.07;;;;;;;;;;5099240;28;20023;-70
2021/06/05 03:02:22;;;;;;;7.22;4.30;;;;;;;;;;5105873;28;20024;-70
2021/06/05 03:04:48;;;;;;;7.75;3.50;;;;;;;;;;5090040;28;20024;-70
2021/06/05 03:07:15;;;;;;;6.13;4.53;;;;;;;;;;5093311;28;20054;-70
2021/06/05 03:09:41;;;;;;;8.07;4.40;;;;;;;;;;5089941;28;20470;-70
2021/06/05 03:12:09;;;;;;;6.88;3.40;;;;;;;;;;5107715;28;20039;-71
2021/06/05 03:14:36;;;;;;;7.95;3.60;;;;;;;;;;5105866;28;20044;-71
2021/06/05 03:17:03;;;;;;;9.55;3.83;;;;;;;;;;5089967;28;20023;-70
2021/06/05 03:19:29;;;;;;;8.57;3.78;;;;;;;;;;5091068;28;20028;-69
2021/06/05 03:21:55;;;;;;;5.47;3.40;;;;;;;;;;5106682;28;20481;-70
2021/06/05 03:24:21;;;;;;;8.35;4.10;;;;;;;;;;5103580;28;20101;-71
2021/06/05 03:26:47;;;;;;;6.07;3.47;;;;;;;;;;5096251;28;20042;-70
2021/06/05 03:29:14;;;;;;;6.90;3.05;;;;;;;;;;5097046;28;20032;-71
2021/06/05 03:31:40;;;;;;;7.43;3.75;;;;;;;;;;5103766;28;20035;-70
2021/06/05 03:34:06;;;;;;;8.23;3.95;;;;;;;;;;5103553;28;20039;-70
2021/06/05 03:36:32;;;;;;;5.05;3.47;;;;;;;;;;5089585;28;20036;-70
2021/06/05 03:38:58;;;;;;;7.32;3.60;;;;;;;;;;5092111;28;20390;-70
2021/06/05 03:41:25;;;;;;;9.30;3.13;;;;;;;;;;5091539;28;20085;-71
2021/06/05 03:43:51;;;;;;;6.35;3.10;;;;;;;;;;5089259;28;20103;-69
2021/06/05 03:46:17;;;;;;;6.88;3.50;;;;;;;;;;5089446;28;20394;-70
2021/06/05 03:48:43;;;;;;;6.50;3.05;;;;;;;;;;5101865;28;20026;-71
2021/06/05 03:51:09;;;;;;;5.55;2.80;;;;;;;;;;5097918;28;20034;-71
2021/06/05 03:53:35;;;;;;;5.90;3.88;;;;;;;;;;5101757;28;20482;-71
2021/06/05 03:56:03;;;;;;;9.65;3.53;;;;;;;;;;5092513;28;20040;-71
2021/06/05 03:58:37;;;;;;;7.20;4.00;;;;;;;;;;5096801;28;20032;-69
2021/06/05 04:01:04;;;;;;;9.02;3.28;;;;;;;;;;5093547;28;20045;-70
2021/06/05 04:03:30;;;;;;;5.25;3.30;;;;;;;;;;5089871;28;20482;-71
2021/06/05 04:05:56;;;;;;;5.22;3.03;;;;;;;;;;5101618;28;20035;-71
2021/06/05 04:08:22;;;;;;;6.30;3.40;;;;;;;;;;5093290;28;20028;-71
2021/06/05 04:10:48;;;;;;;7.65;3.40;;;;;;;;;;5100036;28;20058;-69
2021/06/05 04:13:15;;;;;;;6.40;3.30;;;;;;;;;;5105034;28;20031;-71
2021/06/05 04:15:41;;;;;;;7.00;2.97;;;;;;;;;;5096592;28;20110;-70
2021/06/05 04:18:09;;;;;;;5.75;3.40;;;;;;;;;;5106622;28;20634;-71
2021/06/05 04:20:36;;;;;;;5.90;2.70;;;;;;;;;;5088990;28;20040;-70
2021/06/05 04:23:02;;;;;;;10.60;4.07;;;;;;;;;;5089790;28;20039;-70
2021/06/05 04:25:29;;;;;;;5.03;3.22;;;;;;;;;;5090016;28;20062;-71
2021/06/05 04:27:55;;;;;;;5.70;2.88;;;;;;;;;;5093601;28;20069;-70
2021/06/05 04:30:23;;;;;;;7.93;3.47;;;;;;;;;;5096300;28;20019;-70
2021/06/05 04:32:49;;;;;;;4.82;2.95;;;;;;;;;;5088779;28;20032;-71
2021/06/05 04:35:15;;;;;;;6.35;2.90;;;;;;;;;;5089840;28;20114;-70
2021/06/05 04:37:41;;;;;;;6.95;3.40;;;;;;;;;;5088646;28;20487;-70
2021/06/05 04:40:09;;;;;;;7.28;2.83;;;;;;;;;;5089454;28;20525;-71
2021/06/05 04:42:35;;;;;;;4.50;3.17;;;;;;;;;;5091838;28;20028;-70
2021/06/05 04:45:01;;;;;;;4.65;3.28;;;;;;;;;;5095180;28;20028;-72
2021/06/05 04:47:27;;;;;;;6.18;2.95;;;;;;;;;;5107113;28;20027;-71
2021/06/05 04:49:53;;;;;;;4.72;2.70;;;;;;;;;;5097029;28;20032;-70
2021/06/05 04:52:19;;;;;;;9.35;3.38;;;;;;;;;;5088897;28;20028;-69
2021/06/05 04:54:45;;;;;;;2.78;2.20;;;;;;;;;;5089938;28;20028;-71
2021/06/05 04:57:11;;;;;;;3.88;2.50;;;;;;;;;;5095664;28;20107;-71
2021/06/05 04:59:38;;;;;;;5.47;2.65;;;;;;;;;;5097153;28;20032;-72
2021/06/05 05:02:04;;;;;;;3.70;2.25;;;;;;;;;;5113342;28;20035;-71
2021/06/05 05:04:30;;;;;;;3.78;2.40;;;;;;;;;;5099457;28;20039;-71
2021/06/05 05:06:56;;;;;;;3.72;2.83;;;;;;;;;;5097127;28;20032;-69
2021/06/05 05:09:22;;;;;;;3.35;2.20;;;;;;;;;;5112232;28;20103;-71
2021/06/05 05:11:48;;;;;;;3.10;2.45;;;;;;;;;;5109982;28;20367;-71
2021/06/05 05:14:14;;;;;;;2.63;2.00;;;;;;;;;;5096369;28;20114;-70
2021/06/05 05:16:40;;;;;;;3.28;2.13;;;;;;;;;;5095189;28;20036;-71
2021/06/05 05:19:07;;;;;;;4.63;2.95;;;;;;;;;;5104693;28;20115;-70
2021/06/05 05:21:33;;;;;;;3.97;2.20;;;;;;;;;;5099496;28;20035;-71
2021/06/05 05:23:59;;;;;;;2.20;2.00;;;;;;;;;;5109592;28;20028;-70
2021/06/05 05:26:26;;;;;;;2.22;2.00;;;;;;;;;;5106772;28;20032;-71
2021/06/05 05:28:54;;;;;;;2.05;1.85;;;;;;;;;;5091237;28;20024;-70
2021/06/05 05:31:21;;;;;;;2.40;2.20;;;;;;;;;;5095454;28;20023;-71
2021/06/05 05:33:47;;;;;;;2.55;2.00;;;;;;;;;;5093357;28;20035;-70
2021/06/05 05:36:16;;;;;;;3.78;2.28;;;;;;;;;;5095613;28;20020;-71
2021/06/05 05:38:42;;;;;;;3.25;2.10;;;;;;;;;;5097235;28;20031;-70
2021/06/05 05:41:09;;;;;;;2.70;2.00;;;;;;;;;;5101765;28;20043;-71
2021/06/05 05:43:36;;;;;;;4.13;2.20;;;;;;;;;;5084065;28;20028;-70
2021/06/05 05:46:04;;;;;;;2.67;2.03;;;;;;;;;;5093731;28;20044;-71
2021/06/05 05:48:30;;;;;;;4.93;2.10;;;;;;;;;;5099621;28;20027;-70
2021/06/05 05:50:56;;;;;;;2.78;2.28;;;;;;;;;;5112239;28;20106;-70
2021/06/05 05:53:22;;;;;;;2.88;2.42;;;;;;;;;;5105716;28;20486;-71
2021/06/05 05:55:49;;;;;;;3.65;2.00;;;;;;;;;;5104855;28;20039;-70
2021/06/05 05:58:17;;;;;;;2.17;1.90;;;;;;;;;;5106086;28;20035;-71
2021/06/05 06:00:44;;;;;;;3.58;2.08;;;;;;;;;;5096943;28;20034;-71
2021/06/05 06:03:11;;;;;;;3.20;1.80;;;;;;;;;;5092072;28;20020;-70
2021/06/05 06:05:37;;;;;;;2.00;1.80;;;;;;;;;;5097004;28;20024;-70
2021/06/05 06:08:04;;;;;;;3.13;1.92;;;;;;;;;;5091639;28;20116;-71
2021/06/05 06:10:31;;;;;;;1.80;1.70;;;;;;;;;;5097620;28;20391;-71
2021/06/05 06:12:57;;;;;;;1.90;1.67;;;;;;;;;;5112151;28;20110;-71
2021/06/05 06:15:25;;;;;;;2.40;2.00;;;;;;;;;;5105815;28;20035;-71
2021/06/05 06:17:52;;;;;;;2.08;1.80;;;;;;;;;;5098542;28;20121;-71
2021/06/05 06:20:40;;;;;;;3.25;1.90;;;;;;;;;;5105833;28;20390;-71
2021/06/05 06:23:06;;;;;;;2.38;1.90;;;;;;;;;;5095057;28;20020;-70
2021/06/05 06:25:38;;;;;;;3.88;1.70;;;;;;;;;;5107417;28;20027;-71
2021/06/05 06:28:05;;;;;;;2.38;1.70;;;;;;;;;;5098173;28;20085;-71
2021/06/05 06:30:33;;;;;;;1.77;1.52;;;;;;;;;;5091933;28;20205;-70
2021/06/05 06:33:00;;;;;;;1.67;1.58;;;;;;;;;;5099907;28;20032;-70
2021/06/05 06:35:27;;;;;;;1.60;1.50;;;;;;;;;;5098296;28;20503;-70
2021/06/05 06:37:53;;;;;;;1.70;1.60;;;;;;;;;;5096052;28;20577;-71
2021/06/05 06:40:21;;;;;;;1.75;1.60;;;;;;;;;;5098243;28;20371;-71
2021/06/05 06:42:47;;;;;;;1.55;1.45;;;;;;;;;;5111422;28;20049;-71
2021/06/05 06:45:13;;;;;;;1.83;1.48;;;;;;;;;;5096108;28;20024;-71
2021/06/05 06:47:40;;;;;;;1.55;1.45;;;;;;;;;;5093256;28;20020;-71
2021/06/05 06:50:07;;;;;;;1.50;1.40;;;;;;;;;;5092921;28;20599;-70
2021/06/05 06:52:33;;;;;;;3.72;1.67;;;;;;;;;;5103111;28;20123;-71
2021/06/05 06:54:59;;;;;;;1.70;1.60;;;;;;;;;;5085567;28;20051;-71
2021/06/05 06:57:25;;;;;;;1.70;1.60;;;;;;;;;;5091084;28;20039;-71
2021/06/05 06:59:51;;;;;;;1.85;1.60;;;;;;;;;;5075565;28;20023;-71
2021/06/05 07:02:18;;;;;;;1.55;1.45;;;;;;;;;;5092674;28;20032;-71
2021/06/05 07:04:44;;;;;;;1.60;1.50;;;;;;;;;;5108008;28;20034;-71
2021/06/05 07:07:10;;;;;;;1.70;1.60;;;;;;;;;;5094688;28;20094;-71
2021/06/05 07:09:36;;;;;;;1.67;1.58;;;;;;;;;;5099815;28;20060;-71
2021/06/05 07:12:03;;;;;;;1.50;1.40;;;;;;;;;;5097345;28;20106;-71
2021/06/05 07:14:29;;;;;;;1.65;1.55;;;;;;;;;;5100467;28;20125;-71
2021/06/05 07:16:57;;;;;;;2.47;1.50;;;;;;;;;;5090134;28;20107;-70
2021/06/05 07:19:23;;;;;;;2.05;1.55;;;;;;;;;;5091179;28;20028;-71
2021/06/05 07:21:49;;;;;;;1.55;1.40;;;;;;;;;;5095648;28;20477;-70
2021/06/05 07:24:15;;;;;;;1.20;1.20;;;;;;;;;;5099981;28;20080;-70
2021/06/05 07:26:42;;;;;;;1.65;1.50;;;;;;;;;;5092870;28;20024;-70
2021/06/05 07:29:11;;;;;;;2.65;1.55;;;;;;;;;;5098825;28;20036;-71
2021/06/05 07:31:50;;;;;;;1.48;1.38;;;;;;;;;;5104623;28;20032;-73
2021/06/05 07:34:17;;;;;;;1.70;1.60;;;;;;;;;;5094509;28;20433;-71
2021/06/05 07:36:45;;;;;;;1.42;1.33;;;;;;;;;;5102262;28;20558;-71
2021/06/05 07:39:14;;;;;;;2.25;1.90;;;;;;;;;;5095744;28;20111;-71
2021/06/05 07:41:41;;;;;;;1.70;1.40;;;;;;;;;;5102456;28;20036;-71
2021/06/05 07:44:08;;;;;;;1.50;1.40;;;;;;;;;;5096894;28;20556;-72
2021/06/05 07:46:34;;;;;;;1.38;1.27;;;;;;;;;;5094320;28;20039;-73
2021/06/05 07:49:00;;;;;;;1.60;1.50;;;;;;;;;;5092352;28;20012;-73
2021/06/05 07:51:26;;;;;;;1.67;1.58;;;;;;;;;;5103579;28;20073;-73
2021/06/05 07:53:52;;;;;;;2.08;1.98;;;;;;;;;;5095685;28;20036;-72
2021/06/05 07:56:18;;;;;;;2.13;1.90;;;;;;;;;;5103041;28;20379;-72
2021/06/05 07:58:45;;;;;;;2.00;1.60;;;;;;;;;;5107452;28;20039;-71
2021/06/05 08:01:11;;;;;;;1.50;1.40;;;;;;;;;;5101151;28;20612;-72
2021/06/05 08:03:37;;;;;;;1.45;1.35;;;;;;;;;;5099766;28;20019;-72
2021/06/05 08:06:03;;;;;;;1.33;1.30;;;;;;;;;;5109143;28;20523;-71
2021/06/05 08:08:30;;;;;;;1.52;1.42;;;;;;;;;;5109676;28;20161;-72
2021/06/05 08:10:56;;;;;;;1.38;1.27;;;;;;;;;;5106209;28;20046;-71
2021/06/05 08:13:22;;;;;;;1.50;1.40;;;;;;;;;;5109480;28;20046;-72
2021/06/05 08:15:50;;;;;;;1.67;1.58;;;;;;;;;;5104696;28;20031;-73
2021/06/05 08:18:17;;;;;;;1.52;1.42;;;;;;;;;;5089734;28;20039;-72
2021/06/05 08:20:47;;;;;;;1.80;1.70;;;;;;;;;;5096702;28;20046;-71
2021/06/05 08:23:15;;;;;;;1.25;1.25;;;;;;;;;;5088938;28;20020;-72
2021/06/05 08:25:41;;;;;;;1.50;1.40;;;;;;;;;;5089389;28;20028;-73
2021/06/05 08:28:08;;;;;;;1.67;1.58;;;;;;;;;;5089395;28;20104;-72
2021/06/05 08:30:39;;;;;;;1.55;1.45;;;;;;;;;;5089264;28;20024;-71
2021/06/05 08:33:05;;;;;;;1.65;1.55;;;;;;;;;;5089220;28;20632;-71
2021/06/05 08:35:31;;;;;;;1.63;1.50;;;;;;;;;;5089341;28;20394;-72
2021/06/05 08:37:57;;;;;;;2.38;1.70;;;;;;;;;;5089729;28;20032;-72
2021/06/05 08:40:28;;;;;;;1.80;1.65;;;;;;;;;;5074925;28;20030;-71
2021/06/05 08:42:55;;;;;;;1.92;1.83;;;;;;;;;;5109537;28;20040;-70
2021/06/05 08:45:24;;;;;;;1.65;1.55;;;;;;;;;;5090032;28;20028;-70
2021/06/05 08:47:52;;;;;;;1.65;1.55;;;;;;;;;;5105352;28;20220;-69
2021/06/05 08:50:23;;;;;;;1.60;1.50;;;;;;;;;;5088820;28;20039;-71
2021/06/05 08:53:03;;;;;;;1.65;1.55;;;;;;;;;;5088489;28;20458;-70
2021/06/05 08:55:34;;;;;;;1.77;1.65;;;;;;;;;;5093153;28;20486;-71
2021/06/05 08:58:03;;;;;;;2.00;1.80;;;;;;;;;;5107686;28;20031;-71
2021/06/05 09:00:32;;;;;;;1.98;1.75;;;;;;;;;;5108760;28;20180;-71
2021/06/05 09:03:03;;;;;;;2.10;1.80;;;;;;;;;;5093054;28;20039;-70
2021/06/05 09:05:32;;;;;;;1.73;1.60;;;;;;;;;;5089428;28;20050;-71
2021/06/05 09:07:58;;;;;;;1.60;1.50;;;;;;;;;;5088144;28;20039;-69
2021/06/05 09:10:24;;;;;;;1.80;1.70;;;;;;;;;;5101747;28;20028;-70
2021/06/05 09:12:50;;;;;;;1.70;1.60;;;;;;;;;;5088211;28;20073;-72
2021/06/05 09:15:22;;;;;;;1.70;1.60;;;;;;;;;;5087907;28;20036;-70
2021/06/05 09:17:50;;;;;;;1.65;1.55;;;;;;;;;;5089318;28;20107;-71
2021/06/05 09:20:39;;;;;;;1.75;1.65;;;;;;;;;;5090343;28;20486;-70
2021/06/05 09:23:23;;;;;;;2.05;1.95;;;;;;;;;;5105272;28;20039;-70
2021/06/05 09:25:50;;;;;;;2.08;1.65;;;;;;;;;;5088315;28;20024;-71
2021/06/05 09:28:24;;;;;;;1.73;1.50;;;;;;;;;;5095324;28;20494;-70
2021/06/05 09:30:52;;;;;;;2.75;1.88;;;;;;;;;;5107628;28;20027;-70
2021/06/05 09:33:37;;;;;;;2.60;1.60;;;;;;;;;;5087994;28;20032;-71
2021/06/05 09:36:32;;;;;;;1.70;1.60;;;;;;;;;;5088487;28;20141;-70
2021/06/05 09:39:04;;;;;;;1.83;1.52;;;;;;;;;;5060358;28;20044;-71
2021/06/05 09:41:30;;;;;;;1.73;1.63;;;;;;;;;;5091192;28;20044;-70
2021/06/05 09:44:22;;;;;;;1.98;1.77;;;;;;;;;;5111150;28;20036;-71
2021/06/05 09:47:03;;;;;;;2.00;1.50;;;;;;;;;;5089754;28;20044;-71
2021/06/05 09:49:29;;;;;;;1.80;1.60;;;;;;;;;;5092410;28;20096;-69
2021/06/05 09:52:00;;;;;;;1.90;1.77;;;;;;;;;;5096117;28;20028;-70
2021/06/05 09:54:35;;;;;;;1.73;1.52;;;;;;;;;;5100210;28;20032;-69
2021/06/05 09:57:16;;;;;;;1.60;1.50;;;;;;;;;;5104109;28;20038;-70
2021/06/05 09:59:42;;;;;;;2.58;1.90;;;;;;;;;;5092334;28;20028;-70
2021/06/05 10:02:22;;;;;;;1.60;1.50;;;;;;;;;;5092864;28;20059;-70
2021/06/05 10:05:02;;;;;;;1.70;1.55;;;;;;;;;;5073785;28;20092;-71
2021/06/05 10:07:29;;;;;;;1.95;1.60;;;;;;;;;;5079525;28;20037;-70
2021/06/05 10:10:18;;;;;;;7.30;2.00;;;;;;;;;;5097231;28;20391;-69
2021/06/05 10:12:44;;;;;;;4.22;2.00;;;;;;;;;;5090936;28;20031;-72
2021/06/05 10:15:12;;;;;;;1.88;1.67;;;;;;;;;;5095847;28;20044;-72
2021/06/05 10:17:51;;;;;;;2.67;1.70;;;;;;;;;;5092674;28;20067;-71
2021/06/05 10:20:36;;;;;;;1.50;1.40;;;;;;;;;;5103691;28;20036;-71
2021/06/05 10:23:03;;;;;;;1.55;1.45;;;;;;;;;;5110202;28;20029;-71
2021/06/05 10:25:30;;;;;;;1.50;1.40;;;;;;;;;;5102826;28;20179;-72
2021/06/05 10:27:57;;;;;;;2.03;1.67;;;;;;;;;;5112478;28;20103;-71
2021/06/05 10:30:23;;;;;;;2.10;1.67;;;;;;;;;;5098870;28;20024;-71
2021/06/05 10:32:50;;;;;;;1.70;1.60;;;;;;;;;;5103372;28;20038;-72
2021/06/05 10:35:25;;;;;;;1.75;1.63;;;;;;;;;;5103559;28;20031;-71
2021/06/05 10:37:51;;;;;;;2.17;1.50;;;;;;;;;;5097206;28;20051;-70
2021/06/05 10:40:22;;;;;;;2.05;1.70;;;;;;;;;;5093892;28;20027;-70
2021/06/05 10:42:50;;;;;;;1.60;1.50;;;;;;;;;;5079845;28;20379;-69
2021/06/05 10:45:24;;;;;;;2.33;1.95;;;;;;;;;;5100721;28;20498;-71
2021/06/05 10:47:56;;;;;;;1.40;1.30;;;;;;;;;;5096700;28;20476;-71
2021/06/05 10:50:25;;;;;;;1.70;1.60;;;;;;;;;;5100947;28;20046;-68
2021/06/05 10:52:54;;;;;;;1.60;1.50;;;;;;;;;;5091077;28;20024;-71
2021/06/05 10:55:25;;;;;;;1.80;1.67;;;;;;;;;;5103898;28;20032;-72
2021/06/05 10:58:10;;;;;;;1.88;1.70;;;;;;;;;;5091485;28;20042;-70
2021/06/05 11:00:42;;;;;;;2.45;1.60;;;;;;;;;;5090550;28;20047;-72
2021/06/05 11:03:31;;;;;;;1.52;1.42;;;;;;;;;;5098914;28;20490;-71
2021/06/05 11:06:18;;;;;;;1.67;1.58;;;;;;;;;;5082678;28;20119;-71
2021/06/05 11:08:48;;;;;;;1.95;1.80;;;;;;;;;;5091914;28;20039;-71
2021/06/05 11:11:31;;;;;;;2.40;1.55;;;;;;;;;;5095837;28;20035;-71
2021/06/05 11:13:57;;;;;;;2.10;1.90;;;;;;;;;;5104027;28;20039;-72
2021/06/05 11:16:43;;;;;;;2.05;1.80;;;;;;;;;;5104786;28;20626;-71
2021/06/05 11:19:31;;;;;;;2.17;1.90;;;;;;;;;;5093995;28;20039;-72
2021/06/05 11:22:05;;;;;;;1.80;1.70;;;;;;;;;;5094094;28;20034;-71
2021/06/05 11:24:32;;;;;;;1.90;1.70;;;;;;;;;;5102840;28;20556;-71
2021/06/05 11:26:59;;;;;;;2.13;1.80;;;;;;;;;;5101508;28;20089;-71
2021/06/05 11:29:28;;;;;;;2.00;1.80;;;;;;;;;;5098448;28;20036;-70
2021/06/05 11:31:56;;;;;;;2.05;1.85;;;;;;;;;;5079922;28;20422;-71
2021/06/05 11:34:34;;;;;;;2.85;2.00;;;;;;;;;;5091222;28;20395;-71
2021/06/05 11:37:15;;;;;;;2.05;1.85;;;;;;;;;;5089318;28;20051;-70
2021/06/05 11:39:51;;;;;;;2.28;1.85;;;;;;;;;;5102971;28;20028;-70
2021/06/05 11:42:17;;;;;;;2.10;1.90;;;;;;;;;;5095041;28;20028;-71
2021/06/05 11:45:03;;;;;;;1.90;1.80;;;;;;;;;;5073182;28;20055;-72
2021/06/05 11:47:32;;;;;;;2.58;1.95;;;;;;;;;;5051678;28;20108;-71
2021/06/05 11:50:11;;;;;;;2.03;1.70;;;;;;;;;;5089777;28;20043;-71
2021/06/05 11:52:40;;;;;;;2.10;1.80;;;;;;;;;;5093538;28;20032;-71
2021/06/05 11:55:16;;;;;;;2.22;1.85;;;;;;;;;;5088738;28;20035;-71
2021/06/05 11:57:43;;;;;;;1.88;1.73;;;;;;;;;;5100548;28;20035;-71
2021/06/05 12:00:14;;;;;;;1.83;1.70;;;;;;;;;;5099340;28;20440;-70
2021/06/05 12:02:41;;;;;;;2.40;1.90;;;;;;;;;;5099161;28;20035;-72
2021/06/05 12:05:19;;;;;;;2.20;1.80;;;;;;;;;;5096739;28;20030;-72
2021/06/05 12:07:45;;;;;;;2.22;1.80;;;;;;;;;;5098995;28;20390;-71
2021/06/05 12:10:12;;;;;;;6.05;2.78;;;;;;;;;;5104848;28;20035;-70
2021/06/05 12:12:43;;;;;;;8.27;4.60;;;;;;;;;;5104637;28;20557;-72
2021/06/05 12:15:16;;;;;;;4.35;3.00;;;;;;;;;;5091459;28;20052;-72
2021/06/05 12:17:43;;;;;;;2.40;2.20;;;;;;;;;;5080962;28;20032;-72
2021/06/05 12:20:12;;;;;;;2.42;2.22;;;;;;;;;;5090174;28;20534;-70
2021/06/05 12:22:39;;;;;;;3.03;2.55;;;;;;;;;;5070828;28;20051;-72
2021/06/05 12:25:06;;;;;;;2.50;2.30;;;;;;;;;;5108742;28;20099;-72
2021/06/05 12:27:37;;;;;;;2.67;2.35;;;;;;;;;;5101696;28;20024;-72
2021/06/05 12:30:23;;;;;;;2.88;2.40;;;;;;;;;;5091606;28;20031;-71
2021/06/05 12:33:09;;;;;;;3.45;2.40;;;;;;;;;;5109044;28;20034;-71
2021/06/05 12:35:43;;;;;;;3.42;2.25;;;;;;;;;;5098321;28;20031;-72
2021/06/05 12:38:11;;;;;;;2.40;2.20;;;;;;;;;;5095320;28;20096;-72
2021/06/05 12:40:40;;;;;;;3.92;2.40;;;;;;;;;;5094173;28;20063;-73
2021/06/05 12:43:08;;;;;;;2.80;2.20;;;;;;;;;;5088629;28;20052;-70
2021/06/05 12:45:35;;;;;;;2.30;2.10;;;;;;;;;;5092065;28;20034;-72
2021/06/05 12:48:02;;;;;;;3.95;2.10;;;;;;;;;;5092677;28;20049;-74
2021/06/05 12:50:34;;;;;;;3.15;2.42;;;;;;;;;;5089005;28;20418;-72
2021/06/05 12:53:01;;;;;;;3.38;2.17;;;;;;;;;;5090421;28;20039;-72
2021/06/05 12:55:36;;;;;;;3.53;2.28;;;;;;;;;;5094326;28;20088;-71
2021/06/05 12:58:12;;;;;;;2.95;2.30;;;;;;;;;;5101700;28;20051;-71
2021/06/05 13:00:44;;;;;;;2.83;2.53;;;;;;;;;;5108731;28;20114;-71
2021/06/05 13:03:10;;;;;;;4.70;2.83;;;;;;;;;;5099300;28;20025;-71
2021/06/05 13:05:37;;;;;;;2.80;2.50;;;;;;;;;;5096020;28;20032;-73
2021/06/05 13:08:11;;;;;;;3.13;2.55;;;;;;;;;;5093925;28;20024;-71
2021/06/05 13:10:43;;;;;;;2.80;2.42;;;;;;;;;;5102926;28;20039;-72
2021/06/05 13:13:19;;;;;;;3.95;3.05;;;;;;;;;;5094991;28;20155;-72
2021/06/05 13:15:45;;;;;;;2.78;2.13;;;;;;;;;;5098267;28;20406;-71
2021/06/05 13:18:32;;;;;;;5.32;3.20;;;;;;;;;;5074728;28;20115;-72
2021/06/05 13:20:59;;;;;;;3.00;2.70;;;;;;;;;;5099307;28;20035;-72
2021/06/05 13:23:25;;;;;;;5.45;2.92;;;;;;;;;;5093369;28;20082;-71
2021/06/05 13:25:53;;;;;;;3.63;3.22;;;;;;;;;;5096155;28;20078;-69
2021/06/05 13:28:25;;;;;;;5.63;3.30;;;;;;;;;;5098619;28;20039;-69
2021/06/05 13:30:52;;;;;;;3.70;2.88;;;;;;;;;;5084255;28;20042;-69
2021/06/05 13:33:33;;;;;;;3.42;3.13;;;;;;;;;;5106229;28;20028;-71
2021/06/05 13:36:21;;;;;;;4.03;3.00;;;;;;;;;;5079238;28;20059;-69
2021/06/05 13:38:54;;;;;;;5.10;3.22;;;;;;;;;;5106427;28;20043;-69
2021/06/05 13:41:20;;;;;;;4.75;3.50;;;;;;;;;;5092158;28;20020;-71
2021/06/05 13:43:48;;;;;;;4.38;3.75;;;;;;;;;;5099132;28;20055;-70
2021/06/05 13:46:14;;;;;;;4.25;3.10;;;;;;;;;;5111371;28;20057;-71
2021/06/05 13:48:40;;;;;;;4.97;3.75;;;;;;;;;;5106169;28;20028;-69
2021/06/05 13:51:06;;;;;;;3.88;3.35;;;;;;;;;;5105668;28;20034;-69
2021/06/05 13:53:34;;;;;;;4.00;3.28;;;;;;;;;;5094067;28;20028;-71
2021/06/05 13:56:02;;;;;;;6.63;3.65;;;;;;;;;;5100270;28;20060;-70
2021/06/05 13:58:28;;;;;;;3.90;3.25;;;;;;;;;;5095682;28;20039;-70
2021/06/05 14:00:54;;;;;;;3.40;3.00;;;;;;;;;;5102509;28;20053;-70
2021/06/05 14:03:21;;;;;;;3.60;3.20;;;;;;;;;;5092181;28;20024;-71
2021/06/05 14:05:47;;;;;;;3.55;3.22;;;;;;;;;;5102966;28;20486;-69
2021/06/05 14:08:13;;;;;;;4.10;3.10;;;;;;;;;;5104234;28;20054;-70
2021/06/05 14:10:41;;;;;;;3.72;3.15;;;;;;;;;;5111694;28;20027;-70
2021/06/05 14:13:07;;;;;;;3.88;2.90;;;;;;;;;;5081015;28;20024;-70
2021/06/05 14:15:41;;;;;;;5.35;3.25;;;;;;;;;;5101304;28;20447;-70
2021/06/05 14:18:08;;;;;;;3.85;3.15;;;;;;;;;;5106957;28;20104;-73
2021/06/05 14:20:37;;;;;;;3.60;3.15;;;;;;;;;;5104496;28;20040;-69
2021/06/05 14:23:03;;;;;;;3.38;2.92;;;;;;;;;;5090903;28;20031;-71
2021/06/05 14:25:30;;;;;;;3.83;3.10;;;;;;;;;;5090991;28;20393;-70
2021/06/05 14:27:56;;;;;;;5.28;3.22;;;;;;;;;;5090937;28;20028;-71
2021/06/05 14:30:31;;;;;;;6.28;4.38;;;;;;;;;;5091707;28;20116;-71
2021/06/05 14:32:57;;;;;;;5.07;3.97;;;;;;;;;;5091649;28;20059;-71
2021/06/05 14:35:24;;;;;;;5.72;3.22;;;;;;;;;;5093926;28;20491;-71
2021/06/05 14:37:50;;;;;;;4.53;3.22;;;;;;;;;;5090913;28;20034;-70
2021/06/05 14:40:16;;;;;;;5.95;3.28;;;;;;;;;;5102766;28;20020;-71
2021/06/05 14:42:42;;;;;;;5.47;3.10;;;;;;;;;;5123259;27;20031;-71
2021/06/05 14:45:10;;;;;;;4.85;3.60;;;;;;;;;;5092095;27;20032;-70
2021/06/05 14:47:36;;;;;;;4.13;3.72;;;;;;;;;;5090938;28;20099;-70
2021/06/05 14:50:03;;;;;;;10.63;4.40;;;;;;;;;;5091029;28;20028;-71
2021/06/05 14:52:29;;;;;;;5.82;3.22;;;;;;;;;;5107832;28;20036;-70
2021/06/05 14:54:55;;;;;;;8.77;3.22;;;;;;;;;;5111203;28;20032;-71